Carlton, Georgia
Current Conditions -  °F | °C
As of 9:51 PM on Saturday 25 Oct 2014 (Local Time) from KAHN Reporting Station
Clear Clear  
Wind Chill: 62°   Ceiling: Unl
Heat Index: 62°   Visibility: 10mi
Dew Point: 49°   Wind: 7mph
Humidity: 62%   Direction: 290°WNW
Pressure: 30"   Gusts: NA
Location:  34.04°N, 83.03°W
Report Text: KAHN 260151Z AUTO 29006KT 10SM CLR 17/09 A3000 RMK AO2 SLP157 T01670094
Loading
Personal Weather Stations






























Interactive Weather Map
Tropical Storm Tracking
New forecast layout! Learn more

10-Day Weather Forecast

Advertisements
Track Severe Weather on mobile